Havana, Florida
Current Conditions -  °F | °C
As of 3:55 PM on Sunday 21 Dec 2014 (Local Time) from K2J9 Reporting Station
Overcast Overcast  
Wind Chill: 55°   Ceiling: 300
Heat Index: 55°   Visibility: 1mi
Dew Point: 55°   Wind: 6mph
Humidity: 100%   Direction: 90°E
Pressure: 30.04"   Gusts: NA
Location:  30.62°N, 84.41°W
Report Text: K2J9 212055Z AUTO 09005KT 1SM OVC003 13/13 A3004 RMK AO1
Loading
Personal Weather Stations






























Interactive Weather Map New forecast layout! Learn more

10-Day Weather Forecast

Advertisements
Track Severe Weather on mobile